Elin Gertrude — WDI9304 — position and weather

sailwx.info

Track history (hours):
 
Tides and Currents Weather Stations Pressure Air Temp Water Temp Dewpoint Dewpoint Depression Visibility Wind Speed Wind Dir Waves Ship Positions

Elin Gertrude

Owner: GraeStone Logistics LLC, Murray, KY. More information available from US FCC via Universal Licensing System and Coast Guard Vessel Documentation Center.

Last reported at 2017-Aug-21 07:26 UTC. Time now 2017-Sep-21 09:02 UTC.
Position N 29°29' W 094°52'.
Warning: this ship's position is 31 days out of date.

Length 24 m; draft 11.1 m.

Type: Sailing vessel. MMSI: 367747310.

Date/timePositionNaut miles runAvg speedWind from/ knotsBaromVisibWave heightAir tempDewpointWater temp
2017-Aug-21 07:26N 29°29' W 094°52'2 4.6
2017-Aug-21 07:00N 29°31' W 094°53'2 4.8
2017-Aug-21 06:31N 29°33' W 094°55'2 4.7
2017-Aug-21 06:01N 29°35' W 094°56'2 4.6
2017-Aug-21 05:30N 29°37' W 094°57'2 4.7
2017-Aug-21 05:00N 29°39' W 094°58'3 5.8
2017-Aug-21 04:30N 29°42' W 094°60'2 4.8
2017-Aug-21 04:00N 29°44' W 095°01'2 4.6
2017-Aug-21 03:31N 29°45' W 095°04'2 3.0
2017-Aug-21 02:43N 29°46' W 095°06'0 1.5
2017-Aug-21 02:29N 29°46' W 095°06'0 0.0
2017-Aug-20 23:43N 29°46' W 095°06'0 0.0
2017-Aug-20 23:19N 29°46' W 095°06'0 0.0
2017-Aug-20 22:57N 29°46' W 095°06'0 0.0
2017-Aug-20 22:11N 29°46' W 095°06'0 0.0
2017-Aug-20 20:09N 29°46' W 095°06'1 3.6
2017-Aug-20 19:57N 29°46' W 095°05'3 4.7
2017-Aug-20 19:22N 29°44' W 095°08'2 6.3
2017-Aug-20 19:00N 29°45' W 095°10'0 0.0
2017-Aug-20 13:27N 29°45' W 095°10'0 0.2
2017-Aug-20 12:57N 29°45' W 095°10'0 0.1
2017-Aug-20 12:30N 29°45' W 095°10'1 2.4
2017-Aug-20 12:00N 29°44' W 095°09'3 6.1
2017-Aug-20 11:29N 29°45' W 095°06'2 4.2
2017-Aug-20 11:00N 29°44' W 095°03'3 5.1
2017-Aug-20 10:29N 29°43' W 095°01'3 5.9
2017-Aug-20 10:00N 29°41' W 094°59'3 6.6
2017-Aug-20 09:31N 29°38' W 094°58'3 6.6
2017-Aug-20 09:01N 29°35' W 094°56'3 6.7
2017-Aug-20 08:31N 29°32' W 094°54'5 7.2
2017-Aug-20 07:52N 29°28' W 094°51'  
2017-Aug-13 23:13N 30°03' W 093°42'1 4.1
2017-Aug-13 22:51N 30°04' W 093°41'1 4.3
2017-Aug-13 22:31N 30°04' W 093°39'2 4.1
2017-Aug-13 22:00N 30°04' W 093°37'2 3.7
2017-Aug-13 21:31N 30°04' W 093°34'2 3.5
2017-Aug-13 21:00N 30°04' W 093°32'2 3.3
2017-Aug-13 20:30N 30°04' W 093°31'2 3.7
2017-Aug-13 20:01N 30°04' W 093°28'2 3.5
2017-Aug-13 19:30N 30°04' W 093°26'2 3.5
2017-Aug-13 19:01N 30°04' W 093°24'2 3.6
2017-Aug-13 18:31N 30°04' W 093°22'2 3.5
2017-Aug-13 18:00N 30°04' W 093°20'2 3.7
2017-Aug-13 17:31N 30°06' W 093°19'1 1.2
2017-Aug-13 17:01N 30°06' W 093°19'1 2.5
2017-Aug-13 16:30N 30°05' W 093°18'1 1.7
2017-Aug-13 16:01N 30°05' W 093°17'1 1.6
2017-Aug-13 15:31N 30°04' W 093°16'2 3.8
2017-Aug-13 15:01N 30°02' W 093°15'2 4.0
2017-Aug-13 14:31N 30°01' W 093°14'2 3.9
2017-Aug-13 14:01N 29°59' W 093°13'2 4.1
2017-Aug-13 13:31N 29°58' W 093°11'2 3.9
2017-Aug-13 13:00N 29°56' W 093°10'2 3.8
2017-Aug-13 12:31N 29°56' W 093°07'2 3.8
2017-Aug-13 12:00N 29°56' W 093°05'2 3.7
2017-Aug-13 11:28N 29°56' W 093°03'31 2.9
2017-Aug-13 00:52N 29°54' W 092°27'2 4.0
2017-Aug-13 00:25N 29°53' W 092°25'2 4.0
2017-Aug-12 23:56N 29°53' W 092°23'2 3.8
2017-Aug-12 23:22N 29°51' W 092°22'1 3.8
2017-Aug-12 23:01N 29°51' W 092°20'2 3.8
2017-Aug-12 22:31N 29°50' W 092°18'2 3.5
2017-Aug-12 22:01N 29°49' W 092°17'2 3.1
2017-Aug-12 21:30N 29°48' W 092°15'2 3.3
2017-Aug-12 21:01N 29°48' W 092°13'1 2.8
2017-Aug-12 20:31N 29°47' W 092°12'2 3.5
2017-Aug-12 20:01N 29°47' W 092°10'2 3.9
2017-Aug-12 19:30N 29°47' W 092°08'2 3.9
2017-Aug-12 19:01N 29°48' W 092°06'2 3.6
2017-Aug-12 18:31N 29°49' W 092°04'2 3.6
2017-Aug-12 18:01N 29°49' W 092°02'2 3.4
2017-Aug-12 17:31N 29°50' W 092°00'2 3.5
2017-Aug-12 16:56N 29°50' W 091°58'  
Track history (hours):
 
Tides and Currents Weather Stations Pressure Air Temp Water Temp Dewpoint Dewpoint Depression Visibility Wind Speed Wind Dir Waves Ship Positions

Elin Gertrude

Owner: GraeStone Logistics LLC, Murray, KY. More information available from US FCC via Universal Licensing System and Coast Guard Vessel Documentation Center.

Last reported at 2017-Aug-21 07:26 UTC. Time now 2017-Sep-21 09:02 UTC.
Position N 29°29' W 094°52'.
Warning: this ship's position is 31 days out of date.

Length 24 m; draft 11.1 m.

Type: Sailing vessel. MMSI: 367747310.

Date/timePositionNaut miles runAvg speedWind from/ knotsBaromVisibWave heightAir tempDewpointWater temp
2017-Aug-21 07:26N 29°29' W 094°52'2 4.6
2017-Aug-21 07:00N 29°31' W 094°53'2 4.8
2017-Aug-21 06:31N 29°33' W 094°55'2 4.7
2017-Aug-21 06:01N 29°35' W 094°56'2 4.6
2017-Aug-21 05:30N 29°37' W 094°57'2 4.7
2017-Aug-21 05:00N 29°39' W 094°58'3 5.8
2017-Aug-21 04:30N 29°42' W 094°60'2 4.8
2017-Aug-21 04:00N 29°44' W 095°01'2 4.6
2017-Aug-21 03:31N 29°45' W 095°04'2 3.0
2017-Aug-21 02:43N 29°46' W 095°06'0 1.5
2017-Aug-21 02:29N 29°46' W 095°06'0 0.0
2017-Aug-20 23:43N 29°46' W 095°06'0 0.0
2017-Aug-20 23:19N 29°46' W 095°06'0 0.0
2017-Aug-20 22:57N 29°46' W 095°06'0 0.0
2017-Aug-20 22:11N 29°46' W 095°06'0 0.0
2017-Aug-20 20:09N 29°46' W 095°06'1 3.6
2017-Aug-20 19:57N 29°46' W 095°05'3 4.7
2017-Aug-20 19:22N 29°44' W 095°08'2 6.3
2017-Aug-20 19:00N 29°45' W 095°10'0 0.0
2017-Aug-20 13:27N 29°45' W 095°10'0 0.2
2017-Aug-20 12:57N 29°45' W 095°10'0 0.1
2017-Aug-20 12:30N 29°45' W 095°10'1 2.4
2017-Aug-20 12:00N 29°44' W 095°09'3 6.1
2017-Aug-20 11:29N 29°45' W 095°06'2 4.2
2017-Aug-20 11:00N 29°44' W 095°03'3 5.1
2017-Aug-20 10:29N 29°43' W 095°01'3 5.9
2017-Aug-20 10:00N 29°41' W 094°59'3 6.6
2017-Aug-20 09:31N 29°38' W 094°58'3 6.6
2017-Aug-20 09:01N 29°35' W 094°56'3 6.7
2017-Aug-20 08:31N 29°32' W 094°54'5 7.2
2017-Aug-20 07:52N 29°28' W 094°51'  
2017-Aug-13 23:13N 30°03' W 093°42'1 4.1
2017-Aug-13 22:51N 30°04' W 093°41'1 4.3
2017-Aug-13 22:31N 30°04' W 093°39'2 4.1
2017-Aug-13 22:00N 30°04' W 093°37'2 3.7
2017-Aug-13 21:31N 30°04' W 093°34'2 3.5
2017-Aug-13 21:00N 30°04' W 093°32'2 3.3
2017-Aug-13 20:30N 30°04' W 093°31'2 3.7
2017-Aug-13 20:01N 30°04' W 093°28'2 3.5
2017-Aug-13 19:30N 30°04' W 093°26'2 3.5
2017-Aug-13 19:01N 30°04' W 093°24'2 3.6
2017-Aug-13 18:31N 30°04' W 093°22'2 3.5
2017-Aug-13 18:00N 30°04' W 093°20'2 3.7
2017-Aug-13 17:31N 30°06' W 093°19'1 1.2
2017-Aug-13 17:01N 30°06' W 093°19'1 2.5
2017-Aug-13 16:30N 30°05' W 093°18'1 1.7
2017-Aug-13 16:01N 30°05' W 093°17'1 1.6
2017-Aug-13 15:31N 30°04' W 093°16'2 3.8
2017-Aug-13 15:01N 30°02' W 093°15'2 4.0
2017-Aug-13 14:31N 30°01' W 093°14'2 3.9
2017-Aug-13 14:01N 29°59' W 093°13'2 4.1
2017-Aug-13 13:31N 29°58' W 093°11'2 3.9
2017-Aug-13 13:00N 29°56' W 093°10'2 3.8
2017-Aug-13 12:31N 29°56' W 093°07'2 3.8
2017-Aug-13 12:00N 29°56' W 093°05'2 3.7
2017-Aug-13 11:28N 29°56' W 093°03'31 2.9
2017-Aug-13 00:52N 29°54' W 092°27'2 4.0
2017-Aug-13 00:25N 29°53' W 092°25'2 4.0
2017-Aug-12 23:56N 29°53' W 092°23'2 3.8
2017-Aug-12 23:22N 29°51' W 092°22'1 3.8
2017-Aug-12 23:01N 29°51' W 092°20'2 3.8
2017-Aug-12 22:31N 29°50' W 092°18'2 3.5
2017-Aug-12 22:01N 29°49' W 092°17'2 3.1
2017-Aug-12 21:30N 29°48' W 092°15'2 3.3
2017-Aug-12 21:01N 29°48' W 092°13'1 2.8
2017-Aug-12 20:31N 29°47' W 092°12'2 3.5
2017-Aug-12 20:01N 29°47' W 092°10'2 3.9
2017-Aug-12 19:30N 29°47' W 092°08'2 3.9
2017-Aug-12 19:01N 29°48' W 092°06'2 3.6
2017-Aug-12 18:31N 29°49' W 092°04'2 3.6
2017-Aug-12 18:01N 29°49' W 092°02'2 3.4
2017-Aug-12 17:31N 29°50' W 092°00'2 3.5
2017-Aug-12 16:56N 29°50' W 091°58'  

Dump ship's entire track history